createdAt,value
2022-08-26T00:03:01.162Z,6.13
2022-08-26T00:06:22.909Z,6.60
2022-08-26T00:09:47.416Z,7.07
2022-08-26T00:13:11.122Z,5.15
2022-08-26T00:16:33.146Z,16.67
2022-08-26T00:19:54.869Z,4.07
2022-08-26T00:23:17.647Z,6.95
2022-08-26T00:26:40.079Z,6.97
2022-08-26T00:30:10.263Z,17.48
2022-08-26T00:33:32.056Z,5.68
2022-08-26T00:36:54.333Z,4.95
2022-08-26T00:40:19.335Z,10.20
2022-08-26T00:43:47.569Z,6.53
2022-08-26T00:47:19.051Z,11.15
2022-08-26T00:50:49.112Z,6.47
2022-08-26T00:54:12.665Z,7.28
2022-08-26T00:57:35.569Z,8.13
2022-08-26T01:00:57.518Z,18.50
2022-08-26T01:04:22.431Z,9.30
2022-08-26T01:07:45.228Z,8.65
2022-08-26T01:11:07.995Z,9.68
2022-08-26T01:14:34.967Z,7.22
2022-08-26T01:17:59.519Z,13.98
2022-08-26T01:21:46.283Z,9.55
2022-08-26T01:25:08.470Z,11.70
2022-08-26T01:28:33.060Z,9.07
2022-08-26T01:31:57.542Z,8.40
2022-08-26T01:35:20.491Z,10.68
2022-08-26T01:38:42.939Z,12.23
2022-08-26T01:42:10.453Z,10.20
2022-08-26T01:45:34.591Z,12.98
2022-08-26T01:49:00.519Z,17.13
2022-08-26T01:52:28.349Z,12.90
2022-08-26T01:55:55.881Z,16.75
2022-08-26T01:59:20.181Z,11.55
2022-08-26T02:02:47.767Z,12.15
2022-08-26T02:06:10.237Z,26.88
2022-08-26T02:09:32.504Z,22.88
2022-08-26T02:13:00.314Z,14.23
2022-08-26T02:16:26.834Z,17.20
2022-08-26T02:19:49.990Z,21.42
2022-08-26T02:23:12.038Z,25.90
2022-08-26T02:26:34.301Z,24.08
2022-08-26T02:30:02.761Z,24.45
2022-08-26T02:33:24.586Z,18.08
2022-08-26T02:36:46.745Z,25.38
2022-08-26T02:40:11.523Z,27.10
2022-08-26T02:43:33.393Z,24.23
2022-08-26T02:46:55.669Z,28.38
2022-08-26T02:50:18.335Z,29.85
2022-08-26T02:53:40.077Z,27.67
2022-08-26T02:57:05.873Z,27.45
2022-08-26T03:00:29.069Z,36.90
2022-08-26T03:03:51.537Z,31.88
2022-08-26T03:07:13.280Z,38.78
2022-08-26T03:10:34.967Z,39.17
2022-08-26T03:13:57.433Z,39.15
2022-08-26T03:17:19.342Z,41.58
2022-08-26T03:20:41.708Z,45.72
2022-08-26T03:24:04.042Z,53.72
2022-08-26T03:27:25.890Z,50.08
2022-08-26T03:30:49.157Z,57.08
2022-08-26T03:34:11.209Z,52.35
2022-08-26T03:37:33.166Z,44.65
2022-08-26T03:40:56.179Z,56.25
2022-08-26T03:44:18.044Z,58.28
2022-08-26T03:47:40.555Z,52.25
2022-08-26T03:51:04.055Z,58.95
2022-08-26T03:54:26.125Z,60.78
2022-08-26T03:57:47.887Z,67.38
2022-08-26T04:01:11.248Z,64.20
2022-08-26T04:04:33.049Z,63.20
2022-08-26T04:07:54.922Z,63.83
2022-08-26T04:11:20.257Z,58.65
2022-08-26T04:14:42.970Z,61.17
2022-08-26T04:18:06.269Z,61.80
2022-08-26T04:21:28.809Z,65.90
2022-08-26T04:24:51.087Z,67.03
2022-08-26T04:28:14.711Z,63.85
2022-08-26T04:31:37.143Z,60.42
2022-08-26T04:34:58.887Z,60.65
2022-08-26T04:38:22.456Z,60.78
2022-08-26T04:41:44.863Z,61.03
2022-08-26T04:45:10.379Z,59.22
2022-08-26T04:48:34.286Z,59.72
2022-08-26T04:51:57.112Z,62.08
2022-08-26T04:55:19.022Z,70.32
2022-08-26T04:58:41.814Z,63.45
2022-08-26T05:02:03.950Z,63.55
2022-08-26T05:05:27.559Z,62.17
2022-08-26T05:08:49.377Z,58.80
2022-08-26T05:12:11.136Z,58.80
2022-08-26T05:15:34.907Z,59.40
2022-08-26T05:18:57.389Z,56.75
2022-08-26T05:22:20.093Z,58.20
2022-08-26T05:25:46.216Z,55.90
2022-08-26T05:29:08.341Z,54.38
2022-08-26T05:32:31.881Z,55.00
2022-08-26T05:35:53.841Z,56.92
2022-08-26T05:39:15.576Z,60.58
2022-08-26T05:42:37.803Z,56.17
2022-08-26T05:46:06.713Z,59.53
2022-08-26T05:49:28.531Z,52.20
2022-08-26T05:52:51.098Z,53.75
2022-08-26T05:56:12.973Z,48.67
2022-08-26T05:59:34.633Z,50.00
2022-08-26T06:02:59.268Z,54.05
2022-08-26T06:06:33.264Z,47.35
2022-08-26T06:10:21.404Z,45.28
2022-08-26T06:13:39.167Z,45.42
2022-08-26T06:17:02.118Z,41.03
2022-08-26T06:20:24.926Z,45.38
2022-08-26T06:24:08.676Z,38.33
2022-08-26T06:27:32.778Z,41.47
2022-08-26T06:30:55.493Z,39.50
2022-08-26T06:34:17.457Z,40.50
2022-08-26T06:37:39.316Z,39.83
2022-08-26T06:41:02.990Z,34.33
2022-08-26T06:44:24.761Z,37.50
2022-08-26T06:47:46.531Z,32.95
2022-08-26T06:51:13.151Z,35.63
2022-08-26T06:54:36.917Z,38.72
2022-08-26T06:58:00.671Z,36.47
2022-08-26T07:01:25.710Z,37.00
2022-08-26T07:04:47.834Z,38.00
2022-08-26T07:08:09.807Z,34.53
2022-08-26T07:11:33.332Z,35.83
2022-08-26T07:14:55.130Z,31.52
2022-08-26T07:18:19.453Z,36.35
2022-08-26T07:21:44.620Z,29.77
2022-08-26T07:25:08.937Z,31.50
2022-08-26T07:28:30.860Z,33.83
2022-08-26T07:31:52.537Z,33.47
2022-08-26T07:35:14.767Z,29.35
2022-08-26T07:38:40.308Z,31.60
2022-08-26T07:42:07.518Z,32.35
2022-08-26T07:45:30.023Z,29.13
2022-08-26T07:48:51.755Z,28.75
2022-08-26T07:52:13.527Z,25.67
2022-08-26T07:55:35.368Z,29.02
2022-08-26T07:58:59.219Z,28.88
2022-08-26T08:02:21.070Z,25.90
2022-08-26T08:05:42.818Z,25.15
2022-08-26T08:09:08.125Z,25.23
2022-08-26T08:12:30.061Z,29.25
2022-08-26T08:15:51.746Z,26.48
2022-08-26T08:19:14.214Z,26.88
2022-08-26T08:22:36.342Z,24.98
2022-08-26T08:26:02.398Z,24.27
2022-08-26T08:29:24.703Z,20.55
2022-08-26T08:32:46.478Z,26.67
2022-08-26T08:36:09.201Z,21.50
2022-08-26T08:39:32.375Z,21.17
2022-08-26T08:43:03.822Z,25.42
2022-08-26T08:46:26.038Z,22.92
2022-08-26T08:49:48.392Z,25.02
2022-08-26T08:53:31.592Z,20.55
2022-08-26T08:57:05.767Z,18.67
2022-08-26T09:00:35.580Z,17.48
2022-08-26T09:04:19.583Z,19.35
2022-08-26T09:07:55.359Z,25.73
2022-08-26T09:11:19.903Z,17.77
2022-08-26T09:14:49.419Z,17.40
2022-08-26T09:18:19.048Z,18.67
2022-08-26T09:21:40.817Z,18.95
2022-08-26T09:25:07.618Z,18.65
2022-08-26T09:28:32.958Z,17.15
2022-08-26T09:32:22.182Z,17.58
2022-08-26T09:35:47.283Z,16.23
2022-08-26T09:39:28.313Z,22.15
2022-08-26T09:43:13.629Z,15.95
2022-08-26T09:46:36.077Z,18.15
2022-08-26T09:50:09.691Z,15.13
2022-08-26T09:53:36.479Z,12.98
2022-08-26T09:57:35.558Z,14.45
2022-08-26T10:01:01.427Z,14.98
2022-08-26T10:04:26.185Z,20.88
2022-08-26T10:07:50.978Z,10.48
2022-08-26T10:11:28.781Z,13.25
2022-08-26T10:14:56.186Z,16.50
2022-08-26T10:18:35.341Z,17.55
2022-08-26T10:22:04.068Z,16.70
2022-08-26T10:25:40.696Z,14.55
2022-08-26T10:29:21.082Z,13.75
2022-08-26T10:32:51.880Z,12.15
2022-08-26T10:36:52.331Z,13.07
2022-08-26T10:40:23.160Z,14.65
2022-08-26T10:43:50.639Z,10.63
2022-08-26T10:47:18.286Z,15.32
2022-08-26T10:50:43.052Z,10.80
2022-08-26T10:54:15.044Z,11.98
2022-08-26T10:57:42.785Z,11.90
2022-08-26T11:01:40.770Z,9.80
2022-08-26T11:05:06.813Z,8.85
2022-08-26T11:08:29.818Z,10.80
2022-08-26T11:11:51.782Z,8.02
2022-08-26T11:15:36.536Z,10.65
2022-08-26T11:18:58.950Z,15.98
2022-08-26T11:22:36.351Z,10.65
2022-08-26T11:26:00.742Z,8.60
2022-08-26T11:30:06.481Z,9.90
2022-08-26T11:33:43.855Z,12.00
2022-08-26T11:37:14.372Z,14.38
2022-08-26T11:40:41.548Z,11.60
2022-08-26T11:44:07.017Z,8.18
2022-08-26T11:47:31.556Z,8.90
2022-08-26T11:51:08.758Z,9.73
2022-08-26T11:54:35.719Z,8.10
2022-08-26T11:58:00.874Z,10.15
2022-08-26T12:01:44.402Z,10.15
2022-08-26T12:05:07.951Z,8.05
2022-08-26T12:08:34.362Z,7.72
2022-08-26T12:12:12.189Z,8.68
2022-08-26T12:15:35.621Z,7.35
2022-08-26T12:18:57.435Z,7.22
2022-08-26T12:22:29.646Z,7.70
2022-08-26T12:26:01.984Z,10.00
2022-08-26T12:29:28.001Z,7.88
2022-08-26T12:32:57.793Z,12.82
2022-08-26T12:36:27.641Z,9.93
2022-08-26T12:39:50.834Z,7.15
2022-08-26T12:43:17.052Z,4.85
2022-08-26T12:46:38.773Z,5.97
2022-08-26T12:50:18.173Z,8.07
2022-08-26T12:53:43.934Z,5.57
2022-08-26T12:57:12.761Z,7.68
2022-08-26T13:00:37.630Z,6.82
2022-08-26T13:03:59.377Z,9.77
2022-08-26T13:07:24.265Z,7.07
2022-08-26T13:10:47.938Z,7.53
2022-08-26T13:14:12.485Z,5.97
2022-08-26T13:17:40.234Z,6.50
2022-08-26T13:21:09.024Z,9.32
2022-08-26T13:24:36.932Z,6.47
2022-08-26T13:27:58.632Z,6.88
2022-08-26T13:31:20.471Z,7.07
2022-08-26T13:34:51.387Z,8.35
2022-08-26T13:38:32.979Z,8.20
2022-08-26T13:41:55.355Z,7.43
2022-08-26T13:45:17.657Z,5.65
2022-08-26T13:48:40.113Z,8.55
2022-08-26T13:52:06.883Z,7.15
2022-08-26T13:55:28.926Z,7.50
2022-08-26T13:58:50.747Z,14.77
2022-08-26T14:02:12.479Z,5.20
2022-08-26T14:05:34.299Z,5.90
2022-08-26T14:08:57.700Z,5.97
2022-08-26T14:12:19.471Z,10.93
2022-08-26T14:15:41.844Z,10.70
2022-08-26T14:19:05.717Z,8.73
2022-08-26T14:22:27.986Z,7.40
2022-08-26T14:25:49.766Z,6.60
2022-08-26T14:29:14.693Z,7.40
2022-08-26T14:32:43.192Z,7.05
2022-08-26T14:36:27.015Z,9.80
2022-08-26T14:39:48.811Z,5.53
2022-08-26T14:43:13.738Z,5.07
2022-08-26T14:46:44.452Z,6.68
2022-08-26T14:50:06.722Z,9.00
2022-08-26T14:53:46.976Z,5.90
2022-08-26T14:57:10.990Z,8.90
2022-08-26T15:00:33.268Z,6.45
2022-08-26T15:03:56.487Z,9.57
2022-08-26T15:07:18.540Z,6.43
2022-08-26T15:10:40.302Z,4.82
2022-08-26T15:14:02.530Z,4.72
2022-08-26T15:17:24.380Z,6.20
2022-08-26T15:20:46.095Z,6.88
2022-08-26T15:24:08.020Z,5.93
2022-08-26T15:27:29.941Z,6.65
2022-08-26T15:30:51.861Z,7.20
2022-08-26T15:34:16.653Z,7.30
2022-08-26T15:37:38.849Z,8.93
2022-08-26T15:41:03.275Z,7.18
2022-08-26T15:44:26.215Z,6.43
2022-08-26T15:48:04.315Z,7.30
2022-08-26T15:51:35.743Z,8.07
2022-08-26T15:55:08.375Z,14.57
2022-08-26T15:58:30.167Z,7.30
2022-08-26T16:01:52.316Z,7.80
2022-08-26T16:05:14.267Z,7.35
2022-08-26T16:08:36.404Z,5.88
2022-08-26T16:11:58.674Z,7.55
2022-08-26T16:15:21.742Z,8.13
2022-08-26T16:18:44.131Z,6.85
2022-08-26T16:22:07.983Z,6.72
2022-08-26T16:25:30.463Z,5.15
2022-08-26T16:28:52.383Z,7.72
2022-08-26T16:32:14.146Z,7.50
2022-08-26T16:35:35.843Z,8.60
2022-08-26T16:38:57.714Z,6.90
2022-08-26T16:42:19.413Z,5.00
2022-08-26T16:45:41.187Z,5.15
2022-08-26T16:49:04.464Z,6.88
2022-08-26T16:52:26.189Z,5.72
2022-08-26T16:55:53.024Z,6.47
2022-08-26T16:59:14.778Z,7.95
2022-08-26T17:02:36.608Z,5.72
2022-08-26T17:05:58.402Z,5.65
2022-08-26T17:09:21.008Z,8.27
2022-08-26T17:12:42.672Z,7.82
2022-08-26T17:16:07.267Z,6.38
2022-08-26T17:19:29.904Z,6.53
2022-08-26T17:23:02.488Z,6.97
2022-08-26T17:26:24.542Z,6.22
2022-08-26T17:29:46.404Z,9.45
2022-08-26T17:33:10.994Z,13.07
2022-08-26T17:36:33.389Z,8.77
2022-08-26T17:39:55.108Z,13.45
2022-08-26T17:43:17.622Z,8.52
2022-08-26T17:46:39.459Z,11.43
2022-08-26T17:50:01.501Z,11.82
2022-08-26T17:53:24.434Z,11.35
2022-08-26T17:56:46.176Z,9.10
2022-08-26T18:00:14.467Z,13.35
2022-08-26T18:03:36.446Z,8.18
2022-08-26T18:06:58.159Z,17.05
2022-08-26T18:10:20.710Z,7.13
2022-08-26T18:13:47.117Z,11.77
2022-08-26T18:17:09.255Z,11.73
2022-08-26T18:20:31.124Z,9.95
2022-08-26T18:23:53.959Z,11.75
2022-08-26T18:27:15.698Z,12.35
2022-08-26T18:30:37.740Z,10.80
2022-08-26T18:34:01.545Z,8.15
2022-08-26T18:37:24.178Z,11.60
2022-08-26T18:40:47.835Z,10.07
2022-08-26T18:44:13.419Z,9.63
2022-08-26T18:47:36.194Z,10.18
2022-08-26T18:51:00.008Z,14.43
2022-08-26T18:54:22.077Z,13.18
2022-08-26T18:57:43.973Z,13.02
2022-08-26T19:01:06.203Z,10.65
2022-08-26T19:04:28.072Z,9.48
2022-08-26T19:07:49.895Z,11.35
2022-08-26T19:11:12.819Z,22.50
2022-08-26T19:14:36.368Z,13.05
2022-08-26T19:17:58.661Z,13.55
2022-08-26T19:21:22.133Z,12.70
2022-08-26T19:24:43.787Z,11.60
2022-08-26T19:28:05.674Z,12.45
2022-08-26T19:31:28.873Z,12.80
2022-08-26T19:34:51.693Z,9.93
2022-08-26T19:38:16.094Z,9.90
2022-08-26T19:41:39.826Z,8.02
2022-08-26T19:45:07.981Z,12.57
2022-08-26T19:48:43.825Z,10.38
2022-08-26T19:52:06.243Z,12.23
2022-08-26T19:55:28.057Z,13.75
2022-08-26T19:58:50.678Z,7.63
2022-08-26T20:02:13.336Z,9.50
2022-08-26T20:05:35.560Z,8.80
2022-08-26T20:08:57.685Z,13.20
2022-08-26T20:12:19.619Z,8.25
2022-08-26T20:15:41.507Z,10.25
2022-08-26T20:19:21.887Z,8.63
2022-08-26T20:22:44.125Z,8.50
2022-08-26T20:26:05.992Z,7.60
2022-08-26T20:29:27.763Z,9.88
2022-08-26T20:32:49.632Z,7.35
2022-08-26T20:36:11.712Z,7.65
2022-08-26T20:39:33.775Z,6.53
2022-08-26T20:42:55.468Z,7.88
2022-08-26T20:46:21.025Z,6.47
2022-08-26T20:49:45.547Z,10.05
2022-08-26T20:53:08.179Z,9.15
2022-08-26T20:56:29.967Z,15.02
2022-08-26T20:59:51.703Z,8.82
2022-08-26T21:03:14.250Z,9.82
2022-08-26T21:06:38.146Z,9.23
2022-08-26T21:10:00.543Z,8.45
2022-08-26T21:13:22.221Z,10.88
2022-08-26T21:16:45.167Z,12.85
2022-08-26T21:20:07.970Z,7.22
2022-08-26T21:23:29.884Z,7.13
2022-08-26T21:26:51.653Z,6.63
2022-08-26T21:30:15.128Z,9.07
2022-08-26T21:33:37.533Z,8.20
2022-08-26T21:36:59.495Z,7.15
2022-08-26T21:40:21.793Z,11.60
2022-08-26T21:43:43.588Z,6.47
2022-08-26T21:47:05.697Z,10.43
2022-08-26T21:50:29.404Z,8.57
2022-08-26T21:53:52.724Z,4.97
2022-08-26T21:57:14.502Z,6.82
2022-08-26T22:00:36.376Z,5.72
2022-08-26T22:03:58.632Z,5.35
2022-08-26T22:07:21.170Z,4.40
2022-08-26T22:10:42.895Z,5.70
2022-08-26T22:14:04.911Z,6.57
2022-08-26T22:17:28.445Z,5.45
2022-08-26T22:20:52.592Z,5.63
2022-08-26T22:24:14.472Z,7.72
2022-08-26T22:27:40.347Z,8.52
2022-08-26T22:31:06.648Z,6.35
2022-08-26T22:34:28.434Z,6.57
2022-08-26T22:37:50.209Z,5.35
2022-08-26T22:41:12.378Z,5.30
2022-08-26T22:44:36.787Z,4.22
2022-08-26T22:48:00.090Z,7.88
2022-08-26T22:51:22.987Z,4.72
2022-08-26T22:54:45.230Z,7.20
2022-08-26T22:58:07.831Z,5.50
2022-08-26T23:01:30.057Z,5.20
2022-08-26T23:04:52.263Z,4.32
2022-08-26T23:08:15.263Z,5.50
2022-08-26T23:11:39.560Z,7.10
2022-08-26T23:15:06.509Z,4.97
2022-08-26T23:18:28.372Z,6.20
2022-08-26T23:21:50.915Z,5.93
2022-08-26T23:25:13.484Z,7.40
2022-08-26T23:28:37.029Z,4.50
2022-08-26T23:31:59.005Z,4.28
2022-08-26T23:35:21.560Z,5.95
2022-08-26T23:38:43.563Z,6.68
2022-08-26T23:42:06.499Z,5.18
2022-08-26T23:45:28.384Z,6.13
2022-08-26T23:48:50.268Z,6.57
2022-08-26T23:52:30.562Z,4.38
2022-08-26T23:55:52.870Z,5.53
2022-08-26T23:59:15.526Z,6.40
